Kerken UL

DE-0200 · North Rhine-Westphalia, 德国

罗盘
风向 的 风向 的 风向 到 风向 170° Kerken UL 2/20
风: 9 kt, 3 beaufort

8 kt

4 kt
改变
0 ft 1.000 2.000 3.000 4.000 5.000
CAVOK
METAR EDLN 020950Z 17009KT 130V200 CAVOK 10/03 Q1002

METAR Kerken UL - DE-0200

Kerken UL是,德国中的小机场。 该机场位于纬度51,43943和经度6,44594。 该机场有一条跑道: 2/20. 这个机场没有ICAO代码,我们使用DE-0200作为参考。 机场在Langen FIR中。

该航空气象观测是针对Mönchengladbach Airport在2024年3月2日 10:50, 当地时间进行的。

机场观察

风向为170°,速度为9 kt。 风向在130°和200°之间变化。

天气为CAVOK。这意味着在5.000 ft或MSA(最低安全高度)以下(以较高者为准)以下没有云。这也意味着没有观测到积雨云或高耸的积云,可见度为10 km 或者更多或更高。此外,不会有雾,降雨或其他重要天气。

温度为10 °C,阵风为7 °C。 露点为3 °C,相对湿度为62%。 海平面上的气压为1002 hPa (QNH)。

白天

今天,太阳从07:15升起,在18:16降落。 这适用于Kerken UL,世界夏令时可能有所不同。 当地时间与世界标准时间之间的时差为+1 小时。 当前,没有夏令时有效。

公司介绍

我们没有关于这个机场的公司信息。

体会

到Vliegles.nl去找飞行课程,跳伞和其他飞行体验。 浏览页面,了解Kerken UL附近所有可用的活动。 你也可以使用搜索功能来寻找你所在地附近的特定飞行课程、跳伞或其他飞行体验。

跑道

Id 标题 侧风 逆风 侧风 %
2/20 016°-196° 4 kt 8 kt 44 %

逆风成分最大的方向会被突出显示,并用于横风计算。 这并不一定意味着这个方向在使用。

温度 & 天气

温度 10 °C
露点 3 °C
相对湿度 62%
风寒 7 °C
Kp-index 0 (0-9)

白天

日出
07:15
中午
12:45
日落
18:16 (7:05)

小工具

你想在你的网站上有一个关于Kerken UL的当前航空天气(METAR)的小部件吗?

显示HTML代码
?>